createdAt,value
2023-05-28T00:05:32.066Z,12.43
2023-05-28T00:10:30.113Z,12.43
2023-05-28T00:15:29.756Z,12.42
2023-05-28T00:40:24.503Z,12.42
2023-05-28T00:45:24.498Z,12.41
2023-05-28T00:50:18.900Z,12.41
2023-05-28T00:55:18.459Z,12.41
2023-05-28T01:02:02.023Z,12.4
2023-05-28T01:06:37.919Z,12.41
2023-05-28T01:11:38.166Z,12.38
2023-05-28T01:16:37.549Z,12.41
2023-05-28T01:21:37.025Z,12.4
2023-05-28T01:26:36.511Z,12.4
2023-05-28T01:31:43.368Z,12.39
2023-05-28T01:36:38.314Z,12.4
2023-05-28T01:41:33.566Z,12.37
2023-05-28T01:46:33.703Z,12.39
2023-05-28T01:51:32.838Z,12.39
2023-05-28T01:56:32.506Z,12.39
2023-05-28T02:01:02.160Z,12.36
2023-05-28T02:06:02.632Z,12.38
2023-05-28T02:13:12.197Z,12.38
2023-05-28T02:16:04.101Z,12.37
2023-05-28T02:20:58.763Z,12.37
2023-05-28T02:25:58.736Z,12.37
2023-05-28T02:30:58.895Z,12.34
2023-05-28T02:35:57.773Z,12.36
2023-05-28T02:40:54.655Z,12.36
2023-05-28T02:45:55.025Z,12.36
2023-05-28T02:50:54.130Z,12.36
2023-05-28T02:55:53.803Z,12.35
2023-05-28T03:01:06.819Z,12.33
2023-05-28T03:05:52.113Z,12.34
2023-05-28T03:10:52.123Z,12.35
2023-05-28T03:15:52.562Z,12.34
2023-05-28T03:20:49.741Z,12.34
2023-05-28T03:25:49.475Z,12.34
2023-05-28T03:30:50.699Z,12.32
2023-05-28T03:35:36.988Z,12.34
2023-05-28T03:40:36.445Z,12.34
2023-05-28T03:45:35.893Z,12.34
2023-05-28T03:50:35.972Z,12.34
2023-05-28T03:55:35.332Z,12.34
2023-05-28T04:00:35.955Z,12.34
2023-05-28T04:05:35.475Z,12.33
2023-05-28T04:10:35.932Z,12.33
2023-05-28T04:15:32.053Z,12.33
2023-05-28T04:20:33.183Z,12.34
2023-05-28T04:25:31.737Z,12.33
2023-05-28T04:30:31.380Z,12.34
2023-05-28T04:35:28.919Z,12.34
2023-05-28T04:40:28.858Z,12.34
2023-05-28T04:45:27.570Z,12.34
2023-05-28T04:50:27.303Z,12.34
2023-05-28T04:55:26.770Z,12.35
2023-05-28T05:10:25.874Z,12.36
2023-05-28T05:15:25.132Z,12.36
2023-05-28T05:20:25.463Z,12.36
2023-05-28T05:30:25.015Z,12.37
2023-05-28T05:35:24.642Z,12.38
2023-05-28T05:50:23.605Z,12.4
2023-05-28T06:00:13.579Z,12.41
2023-05-28T06:05:44.854Z,12.42
2023-05-28T06:10:13.546Z,12.43
2023-05-28T06:15:12.983Z,12.44
2023-05-28T06:20:10.600Z,12.46
2023-05-28T06:25:10.730Z,12.47
2023-05-28T06:30:09.914Z,12.49
2023-05-28T06:35:09.925Z,12.5
2023-05-28T06:40:09.155Z,12.52
2023-05-28T06:45:08.521Z,12.54
2023-05-28T06:50:09.075Z,12.56
2023-05-28T06:55:09.822Z,12.58
2023-05-28T07:00:06.658Z,12.67
2023-05-28T07:01:53.200Z,12.91
2023-05-28T07:06:29.012Z,13.32
2023-05-28T07:11:30.427Z,13.29
2023-05-28T07:16:27.913Z,13.33
2023-05-28T07:21:27.883Z,13.35
2023-05-28T07:26:27.870Z,13.39
2023-05-28T07:31:27.524Z,13.34
2023-05-28T07:36:28.621Z,13.31
2023-05-28T07:41:25.509Z,13.42
2023-05-28T07:46:26.247Z,13.38
2023-05-28T07:51:25.329Z,13.43
2023-05-28T07:56:25.767Z,13.69
2023-05-28T08:00:50.780Z,13.8
2023-05-28T08:05:51.167Z,13.07
2023-05-28T08:10:51.624Z,13.7
2023-05-28T08:15:50.603Z,13.79
2023-05-28T08:21:05.028Z,13.18
2023-05-28T08:25:50.517Z,13.24
2023-05-28T08:30:48.771Z,13.26
2023-05-28T08:35:49.541Z,13.29
2023-05-28T08:40:49.946Z,13.36
2023-05-28T08:45:48.565Z,13.26
2023-05-28T08:50:49.728Z,13.16
2023-05-28T08:55:48.719Z,13.09
2023-05-28T09:05:36.468Z,13.31
2023-05-28T09:20:35.886Z,13.22
2023-05-28T10:00:30.031Z,13.2
2023-05-28T10:05:32.598Z,13.1
2023-05-28T10:10:28.717Z,13.15
2023-05-28T10:15:27.682Z,13.12
2023-05-28T10:20:28.070Z,13.1
2023-05-28T10:25:26.834Z,13.09
2023-05-28T10:30:26.869Z,13.4
2023-05-28T10:35:26.939Z,13.55
2023-05-28T10:40:26.328Z,13.39
2023-05-28T10:45:27.251Z,13.29
2023-05-28T10:50:35.212Z,13.73
2023-05-28T10:55:24.887Z,13.65
2023-05-28T11:00:23.069Z,13.74
2023-05-28T11:05:23.194Z,13.59
2023-05-28T11:10:19.977Z,13.71
2023-05-28T11:15:19.628Z,13.69
2023-05-28T11:20:20.061Z,13.68
2023-05-28T11:25:19.536Z,13.67
2023-05-28T11:30:22.958Z,13.67
2023-05-28T11:35:18.757Z,13.64
2023-05-28T11:40:18.596Z,13.65
2023-05-28T11:45:18.665Z,13.69
2023-05-28T11:50:15.916Z,13.45
2023-05-28T11:55:15.801Z,13.7
2023-05-28T12:00:14.559Z,13.43
2023-05-28T12:02:01.042Z,13.69
2023-05-28T12:06:46.547Z,13.76
2023-05-28T12:11:38.953Z,13.62
2023-05-28T12:16:36.351Z,13.61
2023-05-28T12:21:36.665Z,13.14
2023-05-28T12:26:37.319Z,13.22
2023-05-28T12:31:32.637Z,13.64
2023-05-28T12:36:32.609Z,13.25
2023-05-28T12:41:32.365Z,13.46
2023-05-28T12:46:35.503Z,13.55
2023-05-28T12:51:30.306Z,13.07
2023-05-28T12:56:43.216Z,13.71
2023-05-28T13:00:46.484Z,13.57
2023-05-28T13:05:36.460Z,13.63
2023-05-28T13:10:36.573Z,13.83
2023-05-28T13:15:34.853Z,13.48
2023-05-28T13:20:35.411Z,13.16
2023-05-28T13:25:35.163Z,13.26
2023-05-28T13:30:38.620Z,13.4
2023-05-28T13:35:33.839Z,13.47
2023-05-28T13:40:32.003Z,13.43
2023-05-28T13:45:31.688Z,13.09
2023-05-28T13:50:30.504Z,12.99
2023-05-28T13:55:35.341Z,13.05
2023-05-28T14:00:47.143Z,13.09
2023-05-28T14:05:30.707Z,13.06
2023-05-28T14:10:31.605Z,13.09
2023-05-28T14:15:27.656Z,12.88
2023-05-28T14:20:30.476Z,12.89
2023-05-28T14:25:26.515Z,12.87
2023-05-28T14:30:32.336Z,12.86
2023-05-28T14:35:26.852Z,12.87
2023-05-28T14:40:23.769Z,12.9
2023-05-28T14:45:35.809Z,12.86
2023-05-28T14:50:23.354Z,12.88
2023-05-28T14:55:22.498Z,12.88
2023-05-28T15:00:27.543Z,12.87
2023-05-28T15:02:14.726Z,12.95
2023-05-28T15:06:54.536Z,12.89
2023-05-28T15:11:51.326Z,12.78
2023-05-28T15:16:51.696Z,12.8
2023-05-28T15:21:54.811Z,12.75
2023-05-28T15:26:49.683Z,12.79
2023-05-28T15:31:49.269Z,12.79
2023-05-28T15:36:50.186Z,12.78
2023-05-28T15:41:36.385Z,12.79
2023-05-28T15:46:37.003Z,12.83
2023-05-28T15:51:38.642Z,12.82
2023-05-28T15:56:35.872Z,12.82
2023-05-28T16:00:53.643Z,12.73
2023-05-28T16:05:52.972Z,12.78
2023-05-28T16:10:53.170Z,12.78
2023-05-28T16:15:53.918Z,12.77
2023-05-28T16:20:50.943Z,12.77
2023-05-28T16:25:50.411Z,12.77
2023-05-28T16:30:52.036Z,12.73
2023-05-28T16:35:49.519Z,12.74
2023-05-28T16:40:48.977Z,12.73
2023-05-28T16:45:50.889Z,12.73
2023-05-28T16:50:37.448Z,12.77
2023-05-28T16:55:37.341Z,12.81
2023-05-28T17:00:47.843Z,12.79
2023-05-28T17:05:43.402Z,12.78
2023-05-28T17:10:34.184Z,12.81
2023-05-28T17:15:34.069Z,12.78
2023-05-28T17:20:33.957Z,12.75
2023-05-28T17:26:24.907Z,12.66
2023-05-28T17:30:32.421Z,12.65
2023-05-28T17:35:32.347Z,12.63
2023-05-28T17:40:33.086Z,12.61
2023-05-28T17:45:30.006Z,12.6
2023-05-28T17:50:29.863Z,12.6
2023-05-28T17:55:44.870Z,12.59
2023-05-28T18:05:26.602Z,12.58
2023-05-28T18:10:26.158Z,12.58
2023-05-28T18:20:30.073Z,12.57
2023-05-28T18:25:23.508Z,12.56
2023-05-28T18:30:23.438Z,12.56
2023-05-28T18:40:23.505Z,12.55
2023-05-28T18:45:25.680Z,12.55
2023-05-28T19:00:18.755Z,12.54
2023-05-28T19:02:05.577Z,12.53
2023-05-28T19:06:55.762Z,12.53
2023-05-28T19:11:50.287Z,12.53
2023-05-28T19:16:52.030Z,12.53
2023-05-28T19:21:49.251Z,12.51
2023-05-28T19:26:37.708Z,12.54
2023-05-28T19:31:37.983Z,12.53
2023-05-28T19:36:38.936Z,12.53
2023-05-28T19:41:46.002Z,12.51
2023-05-28T19:46:36.736Z,12.53
2023-05-28T19:51:37.442Z,12.53
2023-05-28T19:56:35.362Z,12.52
2023-05-28T20:01:04.403Z,12.5
2023-05-28T20:06:08.841Z,12.52
2023-05-28T20:11:07.733Z,12.51
2023-05-28T20:15:57.527Z,12.51
2023-05-28T20:21:07.156Z,12.51
2023-05-28T20:25:56.726Z,12.51
2023-05-28T20:30:56.354Z,12.48
2023-05-28T20:35:56.903Z,12.5
2023-05-28T20:40:53.793Z,12.5
2023-05-28T20:45:53.633Z,12.5
2023-05-28T20:51:01.480Z,12.5
2023-05-28T20:55:52.881Z,12.5
2023-05-28T21:01:00.914Z,12.48
2023-05-28T21:05:48.582Z,12.49
2023-05-28T21:10:54.195Z,12.49
2023-05-28T21:15:40.772Z,12.49
2023-05-28T21:20:47.381Z,12.49
2023-05-28T21:25:42.467Z,12.49
2023-05-28T21:30:46.490Z,12.49
2023-05-28T21:35:35.374Z,12.49
2023-05-28T21:40:45.609Z,12.49
2023-05-28T21:45:34.100Z,12.48
2023-05-28T21:50:44.170Z,12.48
2023-05-28T21:55:42.017Z,12.48
2023-05-28T22:10:39.341Z,12.47
2023-05-28T22:20:38.821Z,12.47
2023-05-28T22:25:37.289Z,12.47
2023-05-28T22:30:42.858Z,12.46
2023-05-28T22:35:35.116Z,12.46
2023-05-28T22:45:34.962Z,12.46
2023-05-28T23:00:26.374Z,12.46
2023-05-28T23:05:22.636Z,12.45
2023-05-28T23:10:27.468Z,12.45
2023-05-28T23:15:23.130Z,12.45
2023-05-28T23:20:35.610Z,12.45
2023-05-28T23:30:28.114Z,12.44
2023-05-28T23:35:26.477Z,12.44
2023-05-28T23:40:26.957Z,12.44
2023-05-28T23:45:16.944Z,12.44
2023-05-28T23:55:15.659Z,12.43
